Time;durP1;ratioP1;P1;durP2;ratioP2;P2;SDS_P1;SDS_P2;PMS_P1;PMS_P2;Temp;Humidity;BMP_temperature;BMP_pressure;BME280_temperature;BME280_humidity;BME280_pressure;Samples;Min_cycle;Max_cycle;Signal;HPM_P1;HPM_P2
2021/12/19 00:02:01;;;;;;;974.47;394.45;;;1.10;99.90;;;;;;5114859;28;20027;-50
2021/12/19 00:04:54;;;;;;;882.25;366.83;;;1.10;99.90;;;;;;5114891;28;20023;-50
2021/12/19 00:09:57;;;;;;;997.10;414.15;;;1.30;99.90;;;;;;5114703;28;20051;-50
2021/12/19 00:12:23;;;;;;;740.10;335.23;;;1.40;99.90;;;;;;5105535;28;20066;-50
2021/12/19 00:14:49;;;;;;;969.75;409.65;;;1.40;99.90;;;;;;5094386;28;20478;-50
2021/12/19 00:17:15;;;;;;;1167.30;479.48;;;1.40;99.90;;;;;;5100079;28;20024;-50
2021/12/19 00:19:41;;;;;;;1200.40;495.30;;;1.40;99.90;;;;;;5114614;28;20418;-50
2021/12/19 00:22:07;;;;;;;1062.68;446.70;;;1.30;99.90;;;;;;5114619;28;20054;-50
2021/12/19 00:24:33;;;;;;;1076.10;450.20;;;1.30;99.90;;;;;;5114470;28;20111;-50
2021/12/19 00:26:59;;;;;;;874.83;383.45;;;1.30;99.90;;;;;;5114412;28;20063;-50
2021/12/19 00:29:25;;;;;;;723.38;331.40;;;1.40;99.90;;;;;;5114485;28;20030;-50
2021/12/19 00:31:51;;;;;;;630.28;294.05;;;1.40;99.90;;;;;;5114435;28;20038;-50
2021/12/19 00:34:17;;;;;;;606.35;284.08;;;1.30;99.90;;;;;;5114503;28;20024;-50
2021/12/19 00:36:44;;;;;;;618.78;289.08;;;1.30;99.90;;;;;;5114431;28;20024;-50
2021/12/19 00:39:10;;;;;;;634.42;300.55;;;1.20;99.90;;;;;;5114319;28;20036;-50
2021/12/19 00:41:36;;;;;;;575.63;264.35;;;1.30;99.90;;;;;;5114644;28;20077;-50
2021/12/19 00:44:13;;;;;;;562.63;255.90;;;1.30;99.90;;;;;;5114123;28;20035;-50
2021/12/19 00:46:49;;;;;;;516.67;232.15;;;1.30;99.90;;;;;;5114416;28;20115;-50
2021/12/19 00:49:17;;;;;;;479.23;218.23;;;1.30;99.90;;;;;;5114433;28;20030;-50
2021/12/19 00:51:44;;;;;;;483.23;225.02;;;1.40;99.90;;;;;;5114126;28;20030;-50
2021/12/19 00:54:10;;;;;;;460.85;211.38;;;1.30;99.90;;;;;;5114219;28;20027;-50
2021/12/19 00:56:42;;;;;;;584.20;271.02;;;1.30;99.90;;;;;;5114552;28;20532;-50
2021/12/19 00:59:08;;;;;;;673.78;316.75;;;1.30;99.90;;;;;;5117938;28;20042;-50
2021/12/19 01:01:36;;;;;;;680.03;330.00;;;1.40;99.90;;;;;;5117871;28;20427;-50
2021/12/19 01:04:09;;;;;;;654.55;321.15;;;1.40;99.90;;;;;;5117862;28;20209;-50
2021/12/19 01:06:35;;;;;;;568.92;256.25;;;1.40;99.90;;;;;;5117753;28;20035;-50
2021/12/19 01:09:01;;;;;;;529.08;242.73;;;1.40;99.90;;;;;;5117901;28;20024;-50
2021/12/19 01:11:27;;;;;;;487.88;220.05;;;1.40;99.90;;;;;;5116550;28;20020;-50
2021/12/19 01:13:53;;;;;;;447.30;205.98;;;1.50;99.90;;;;;;5097030;28;20024;-50
2021/12/19 01:16:19;;;;;;;515.40;236.45;;;1.50;99.90;;;;;;5097325;28;20035;-50
2021/12/19 01:18:45;;;;;;;553.47;258.02;;;1.50;99.90;;;;;;5115448;28;20118;-50
2021/12/19 01:21:11;;;;;;;513.65;233.85;;;1.50;99.90;;;;;;5117260;28;20515;-50
2021/12/19 01:23:37;;;;;;;535.60;251.40;;;1.50;99.90;;;;;;5117599;28;20054;-50
2021/12/19 01:26:04;;;;;;;486.80;219.75;;;1.60;99.90;;;;;;5114522;28;20067;-50
2021/12/19 01:28:30;;;;;;;509.92;236.95;;;1.60;99.90;;;;;;5117260;28;20035;-50
2021/12/19 01:30:56;;;;;;;503.13;227.85;;;1.70;99.90;;;;;;5117436;28;20027;-50
2021/12/19 01:33:21;;;;;;;477.77;219.50;;;1.70;99.90;;;;;;5117228;28;20111;-50
2021/12/19 01:35:48;;;;;;;514.90;239.43;;;1.70;99.90;;;;;;5117295;28;20442;-50
2021/12/19 01:38:14;;;;;;;526.92;249.00;;;1.70;99.90;;;;;;5117349;28;20055;-50
2021/12/19 01:40:40;;;;;;;564.25;270.48;;;1.80;99.90;;;;;;5117327;28;20031;-50
2021/12/19 01:43:06;;;;;;;559.25;269.33;;;1.80;99.90;;;;;;5116813;28;20630;-50
2021/12/19 01:45:36;;;;;;;545.95;262.40;;;1.80;99.90;;;;;;5117163;28;20020;-50
2021/12/19 01:48:06;;;;;;;543.65;256.95;;;1.90;99.90;;;;;;5116901;28;20023;-50
2021/12/19 01:50:33;;;;;;;508.40;233.25;;;1.80;99.90;;;;;;5117083;28;20115;-50
2021/12/19 01:53:01;;;;;;;407.08;180.75;;;1.70;99.90;;;;;;5116842;28;20047;-50
2021/12/19 01:55:27;;;;;;;357.13;158.65;;;1.80;99.90;;;;;;5116963;28;20396;-50
2021/12/19 01:57:54;;;;;;;340.70;151.43;;;1.80;99.90;;;;;;5116728;28;20031;-50
2021/12/19 02:00:25;;;;;;;365.50;154.98;;;1.70;99.90;;;;;;5116812;28;20068;-50
2021/12/19 02:02:51;;;;;;;419.00;169.68;;;1.80;99.90;;;;;;5116620;28;20036;-50
2021/12/19 02:05:17;;;;;;;515.65;206.98;;;1.80;99.90;;;;;;5116843;28;20035;-50
2021/12/19 02:07:47;;;;;;;463.13;182.27;;;1.80;99.90;;;;;;5116453;28;20503;-50
2021/12/19 02:10:18;;;;;;;477.73;198.75;;;1.70;99.90;;;;;;5116650;28;20098;-50
2021/12/19 02:12:47;;;;;;;605.03;253.27;;;1.70;99.90;;;;;;5104410;28;20034;-50
2021/12/19 02:15:20;;;;;;;880.28;339.65;;;1.90;99.90;;;;;;5096117;28;20036;-50
2021/12/19 02:17:47;;;;;;;597.72;233.55;;;2.00;99.90;;;;;;5106091;28;20039;-50
2021/12/19 02:20:15;;;;;;;501.25;199.45;;;2.00;99.90;;;;;;5116578;28;20020;-50
2021/12/19 02:22:41;;;;;;;449.98;185.13;;;1.90;99.90;;;;;;5116428;28;20024;-50
2021/12/19 02:25:08;;;;;;;451.85;186.65;;;2.00;99.90;;;;;;5116267;28;20380;-50
2021/12/19 02:27:34;;;;;;;408.25;172.30;;;2.00;99.90;;;;;;5116215;28;20024;-50
2021/12/19 02:30:01;;;;;;;379.52;167.90;;;1.90;99.90;;;;;;5116690;28;20036;-50
2021/12/19 02:32:29;;;;;;;416.05;186.60;;;2.00;99.90;;;;;;5116143;28;20358;-50
2021/12/19 02:34:59;;;;;;;415.05;189.80;;;2.00;99.90;;;;;;5116118;28;20020;-50
2021/12/19 02:48:14;;;;;;;668.40;257.95;;;2.10;99.90;;;;;;5083826;28;20085;-50
2021/12/19 02:50:48;;;;;;;541.15;214.50;;;2.20;99.90;;;;;;5115737;28;20408;-50
2021/12/19 02:53:19;;;;;;;561.25;216.93;;;2.20;99.90;;;;;;5115495;28;20043;-50
2021/12/19 02:55:45;;;;;;;596.13;227.85;;;2.20;99.90;;;;;;5115774;28;20389;-50
2021/12/19 02:58:11;;;;;;;652.67;251.98;;;2.20;99.90;;;;;;5115558;28;20031;-50
2021/12/19 03:00:37;;;;;;;568.17;226.40;;;2.30;99.90;;;;;;5115816;28;20041;-50
2021/12/19 03:03:04;;;;;;;443.73;177.65;;;2.20;99.90;;;;;;5115539;28;20033;-50
2021/12/19 03:05:32;;;;;;;560.72;215.10;;;2.20;99.90;;;;;;5115892;28;20491;-50
2021/12/19 03:08:00;;;;;;;480.90;188.35;;;2.30;99.90;;;;;;5115477;28;20051;-50
2021/12/19 03:18:11;;;;;;;356.35;144.45;;;2.40;99.90;;;;;;5107840;28;20031;-50
2021/12/19 03:20:39;;;;;;;361.75;145.93;;;2.40;99.90;;;;;;5114680;28;20481;-50
2021/12/19 03:23:07;;;;;;;364.33;144.65;;;2.30;99.90;;;;;;5115090;28;20020;-50
2021/12/19 03:25:33;;;;;;;325.20;137.55;;;2.20;99.90;;;;;;5115387;28;20023;-50
2021/12/19 03:28:01;;;;;;;300.55;135.02;;;2.20;99.90;;;;;;5114920;28;20032;-50
2021/12/19 03:30:28;;;;;;;304.10;134.50;;;2.20;99.90;;;;;;5115149;28;20034;-50
2021/12/19 03:32:55;;;;;;;289.52;132.73;;;2.30;99.90;;;;;;5115029;28;20042;-50
2021/12/19 03:35:23;;;;;;;275.30;127.03;;;2.30;99.90;;;;;;5115060;28;20032;-50
2021/12/19 03:37:51;;;;;;;314.85;137.65;;;2.40;99.90;;;;;;5114955;28;20515;-50
2021/12/19 03:40:24;;;;;;;379.92;144.38;;;2.30;99.90;;;;;;5115001;28;20469;-50
2021/12/19 03:42:52;;;;;;;365.13;142.55;;;2.40;99.90;;;;;;5114663;28;20034;-50
2021/12/19 03:45:24;;;;;;;358.60;142.50;;;2.40;99.90;;;;;;5114872;28;20024;-50
2021/12/19 03:47:50;;;;;;;367.45;144.43;;;2.40;99.90;;;;;;5114872;28;20027;-50
2021/12/19 03:50:21;;;;;;;368.60;145.25;;;2.40;99.90;;;;;;5114717;28;20028;-50
2021/12/19 03:52:48;;;;;;;394.38;148.60;;;2.40;99.90;;;;;;5114806;28;20096;-50
2021/12/19 03:55:14;;;;;;;469.50;164.93;;;2.30;99.90;;;;;;5114794;28;20031;-50
2021/12/19 03:57:40;;;;;;;465.58;170.05;;;2.30;99.90;;;;;;5114749;28;20103;-50
2021/12/19 04:00:11;;;;;;;397.55;152.40;;;2.30;99.90;;;;;;5114948;28;20429;-50
2021/12/19 04:02:37;;;;;;;357.90;145.80;;;2.30;99.90;;;;;;5114677;28;20035;-50
2021/12/19 04:05:03;;;;;;;334.52;140.20;;;2.40;99.90;;;;;;5114743;28;20027;-50
2021/12/19 04:07:29;;;;;;;299.95;135.68;;;2.40;99.90;;;;;;5114849;28;20489;-50
2021/12/19 04:09:56;;;;;;;322.92;136.25;;;2.40;99.90;;;;;;5114474;28;20024;-50
2021/12/19 04:12:25;;;;;;;300.48;129.10;;;2.30;99.90;;;;;;5106037;28;20462;-50
2021/12/19 04:14:51;;;;;;;281.65;127.03;;;2.20;99.90;;;;;;5094348;28;20634;-50
2021/12/19 04:17:17;;;;;;;268.23;124.75;;;2.20;99.90;;;;;;5094104;28;20039;-50
2021/12/19 04:19:43;;;;;;;265.65;124.07;;;2.10;99.90;;;;;;5094234;28;20477;-50
2021/12/19 04:22:09;;;;;;;279.00;127.50;;;2.20;99.90;;;;;;5094291;28;20225;-50
2021/12/19 04:24:35;;;;;;;282.08;128.77;;;2.20;99.90;;;;;;5094038;28;20098;-50
2021/12/19 04:27:01;;;;;;;254.80;121.80;;;2.30;99.90;;;;;;5094117;28;20028;-50
2021/12/19 04:29:27;;;;;;;251.75;117.82;;;2.20;99.90;;;;;;5094084;28;20051;-50
2021/12/19 04:31:53;;;;;;;260.15;121.50;;;2.30;99.90;;;;;;5094797;28;20484;-50
2021/12/19 04:34:20;;;;;;;248.73;115.43;;;2.30;99.90;;;;;;5098031;28;20020;-50
2021/12/19 04:36:51;;;;;;;301.70;134.93;;;2.40;99.90;;;;;;5098020;28;20031;-50
2021/12/19 04:55:23;;;;;;;240.32;112.43;;;2.50;99.90;;;;;;5097529;28;20023;-50
2021/12/19 05:00:39;;;;;;;256.13;119.63;;;2.50;99.90;;;;;;5097923;28;20032;-50
2021/12/19 05:04:06;;;;;;;270.65;124.72;;;2.50;99.90;;;;;;5097408;28;20048;-50
2021/12/19 05:06:03;;;;;;;258.27;115.78;;;2.50;99.90;;;;;;5083041;28;20044;-50
2021/12/19 05:14:07;;;;;;;217.45;104.35;;;2.50;99.90;;;;;;5077033;28;20025;-50
2021/12/19 05:16:36;;;;;;;231.55;109.18;;;2.50;99.90;;;;;;5076799;28;20036;-50
2021/12/19 05:19:08;;;;;;;228.32;104.90;;;2.40;99.90;;;;;;5097635;28;20085;-50
2021/12/19 05:21:37;;;;;;;229.05;106.72;;;2.50;99.90;;;;;;5097220;28;20063;-50
2021/12/19 05:26:29;;;;;;;221.20;107.63;;;2.50;99.90;;;;;;5097083;28;20109;-50
2021/12/19 05:28:55;;;;;;;219.88;107.65;;;2.50;99.90;;;;;;5096732;28;20505;-50
2021/12/19 05:31:21;;;;;;;219.25;103.95;;;2.50;99.90;;;;;;5097007;28;20032;-50
2021/12/19 05:33:47;;;;;;;223.27;105.70;;;2.60;99.90;;;;;;5097033;28;20027;-50
2021/12/19 05:46:53;;;;;;;231.18;110.38;;;2.30;99.90;;;;;;5096581;28;20086;-50
2021/12/19 05:49:20;;;;;;;266.95;118.55;;;2.40;99.90;;;;;;5096684;28;20398;-50
2021/12/19 05:51:46;;;;;;;325.25;145.93;;;2.50;99.90;;;;;;5096434;28;20074;-50
2021/12/19 05:54:13;;;;;;;260.08;122.55;;;2.60;99.90;;;;;;5096423;28;20435;-50
2021/12/19 05:56:39;;;;;;;203.90;99.63;;;2.60;99.90;;;;;;5096516;28;20028;-50
2021/12/19 05:59:06;;;;;;;190.57;95.47;;;2.60;99.90;;;;;;5096469;28;20124;-50
2021/12/19 06:01:32;;;;;;;195.60;95.50;;;2.60;99.90;;;;;;5096442;28;20393;-50
2021/12/19 06:03:59;;;;;;;194.95;92.85;;;2.60;99.90;;;;;;5096270;28;20016;-50
2021/12/19 06:06:27;;;;;;;197.40;92.57;;;2.50;99.90;;;;;;5096091;28;20064;-50
2021/12/19 06:08:54;;;;;;;185.60;89.15;;;2.60;99.90;;;;;;5096178;28;20256;-50
2021/12/19 06:11:19;;;;;;;205.85;94.38;;;2.60;99.90;;;;;;5096105;28;20454;-50
2021/12/19 06:13:46;;;;;;;198.77;95.30;;;2.60;99.90;;;;;;5096087;28;20031;-50
2021/12/19 06:16:12;;;;;;;197.73;93.78;;;2.60;99.90;;;;;;5096149;28;20426;-50
2021/12/19 06:18:38;;;;;;;203.05;96.60;;;2.60;99.90;;;;;;5113308;28;20027;-50
2021/12/19 06:21:04;;;;;;;193.77;94.97;;;2.60;99.90;;;;;;5116368;28;20024;-50
2021/12/19 06:23:32;;;;;;;201.95;95.90;;;2.60;99.90;;;;;;5116466;28;20015;-50
2021/12/19 06:25:59;;;;;;;202.68;96.10;;;2.60;99.90;;;;;;5116412;28;20057;-50
2021/12/19 06:28:25;;;;;;;190.43;92.90;;;2.60;99.90;;;;;;5116141;28;20024;-50
2021/12/19 06:30:50;;;;;;;200.60;91.72;;;2.70;99.90;;;;;;5116261;28;20027;-50
2021/12/19 06:33:16;;;;;;;193.95;92.70;;;2.70;99.90;;;;;;5116375;28;20019;-50
2021/12/19 06:35:42;;;;;;;192.02;93.78;;;2.70;99.90;;;;;;5116176;28;20019;-50
2021/12/19 06:38:08;;;;;;;188.60;93.20;;;2.70;99.90;;;;;;5116119;28;20392;-50
2021/12/19 06:40:35;;;;;;;185.35;89.75;;;2.80;99.90;;;;;;5116067;28;20065;-50
2021/12/19 06:43:02;;;;;;;187.13;94.28;;;2.80;99.90;;;;;;5115809;28;20023;-50
2021/12/19 06:45:28;;;;;;;190.52;93.13;;;2.80;99.90;;;;;;5116078;28;20027;-50
2021/12/19 06:47:54;;;;;;;188.77;93.20;;;2.80;99.90;;;;;;5115825;28;20051;-50
2021/12/19 06:50:20;;;;;;;191.57;92.20;;;2.90;99.90;;;;;;5115872;28;20457;-50
2021/12/19 06:52:47;;;;;;;190.13;90.43;;;2.90;99.90;;;;;;5115955;28;20123;-50
2021/12/19 06:55:15;;;;;;;196.73;95.07;;;2.90;99.90;;;;;;5115033;28;20063;-50
2021/12/19 06:57:41;;;;;;;197.65;94.97;;;2.80;99.90;;;;;;5115689;28;20418;-50
2021/12/19 07:00:17;;;;;;;204.48;99.28;;;2.90;99.90;;;;;;5115670;28;20498;-50
2021/12/19 07:02:44;;;;;;;213.50;103.15;;;2.90;99.90;;;;;;5115433;28;20169;-50
2021/12/19 07:05:11;;;;;;;226.73;104.32;;;2.90;99.90;;;;;;5115721;28;20038;-50
2021/12/19 07:07:37;;;;;;;247.07;108.00;;;3.00;99.90;;;;;;5115480;28;20031;-50
2021/12/19 07:10:05;;;;;;;290.63;117.45;;;3.00;99.90;;;;;;5115298;28;20031;-50
2021/12/19 07:12:31;;;;;;;260.45;111.28;;;3.10;99.90;;;;;;5105346;28;20028;-50
2021/12/19 07:14:58;;;;;;;281.70;118.03;;;3.10;99.90;;;;;;5095149;28;20023;-50
2021/12/19 07:17:25;;;;;;;211.73;97.32;;;3.10;99.90;;;;;;5101714;28;20035;-50
2021/12/19 07:19:51;;;;;;;244.23;110.75;;;3.10;99.90;;;;;;5115503;28;20385;-50
2021/12/19 07:22:18;;;;;;;252.07;111.78;;;3.10;99.90;;;;;;5115160;28;20107;-50
2021/12/19 07:24:45;;;;;;;285.75;120.25;;;3.20;99.90;;;;;;5115231;28;20032;-50
2021/12/19 07:27:13;;;;;;;277.58;117.68;;;3.30;99.90;;;;;;5115252;28;20020;-50
2021/12/19 07:29:39;;;;;;;345.70;139.15;;;3.30;99.90;;;;;;5115239;28;20055;-50
2021/12/19 07:32:05;;;;;;;364.65;149.38;;;3.40;99.90;;;;;;5115038;28;20042;-50
2021/12/19 07:34:34;;;;;;;353.85;143.07;;;3.40;99.90;;;;;;5115123;28;20027;-50
2021/12/19 07:37:00;;;;;;;468.15;172.45;;;3.40;99.90;;;;;;5115111;28;20024;-50
2021/12/19 07:39:40;;;;;;;376.48;143.13;;;3.40;99.90;;;;;;5115274;28;20541;-50
2021/12/19 07:42:09;;;;;;;255.25;109.15;;;3.40;99.90;;;;;;5114902;28;20415;-50
2021/12/19 07:44:36;;;;;;;212.40;98.53;;;3.40;99.90;;;;;;5114705;28;20047;-50
2021/12/19 07:47:04;;;;;;;207.65;99.30;;;3.50;99.90;;;;;;5115276;28;20391;-50
2021/12/19 07:49:30;;;;;;;216.13;104.45;;;3.50;99.90;;;;;;5114905;28;20449;-50
2021/12/19 07:51:56;;;;;;;209.30;101.95;;;3.60;99.90;;;;;;5115130;28;20027;-50
2021/12/19 07:54:22;;;;;;;238.32;116.25;;;3.70;99.90;;;;;;5114916;28;20774;-50
2021/12/19 07:56:48;;;;;;;209.80;99.70;;;4.30;99.90;;;;;;5114769;28;20081;-50
2021/12/19 07:59:14;;;;;;;200.68;98.95;;;4.70;99.90;;;;;;5114824;28;20076;-50
2021/12/19 08:01:40;;;;;;;201.63;94.70;;;5.00;99.90;;;;;;5114878;28;20051;-50
2021/12/19 08:04:06;;;;;;;212.35;101.28;;;5.20;99.90;;;;;;5114722;28;20496;-50
2021/12/19 08:06:32;;;;;;;204.25;102.32;;;5.80;99.90;;;;;;5116711;28;20024;-50
2021/12/19 08:09:07;;;;;;;208.60;102.30;;;6.40;99.90;;;;;;5119111;28;20095;-50
2021/12/19 08:11:40;;;;;;;217.65;105.88;;;6.90;99.90;;;;;;5116909;28;20032;-50
2021/12/19 08:14:07;;;;;;;224.57;110.00;;;6.80;99.90;;;;;;5098758;28;20095;-51
2021/12/19 08:16:33;;;;;;;239.02;118.05;;;6.60;99.90;;;;;;5098407;28;20543;-50
2021/12/19 08:18:59;;;;;;;217.75;106.63;;;6.40;99.90;;;;;;5098242;28;20028;-50
2021/12/19 08:21:25;;;;;;;211.13;99.97;;;6.30;99.90;;;;;;5098179;28;20059;-51
2021/12/19 08:23:52;;;;;;;203.18;99.80;;;6.80;99.90;;;;;;5098291;28;20060;-50
2021/12/19 08:26:19;;;;;;;214.10;106.82;;;7.60;99.90;;;;;;5098243;28;20028;-51
2021/12/19 08:28:45;;;;;;;178.05;92.45;;;8.90;99.90;;;;;;5098276;28;20020;-51
2021/12/19 08:31:11;;;;;;;194.00;91.97;;;9.90;99.90;;;;;;5098175;28;20477;-51
2021/12/19 08:33:37;;;;;;;176.13;84.78;;;10.10;99.90;;;;;;5098030;28;20032;-51
2021/12/19 08:36:03;;;;;;;170.70;83.85;;;10.80;97.90;;;;;;5098048;28;20028;-51
2021/12/19 08:38:29;;;;;;;170.25;84.40;;;11.30;97.40;;;;;;5098033;28;20067;-51
2021/12/19 08:40:55;;;;;;;160.82;80.82;;;11.60;93.40;;;;;;5097983;28;20028;-51
2021/12/19 08:43:21;;;;;;;169.70;84.95;;;12.60;92.30;;;;;;5097792;28;20027;-51
2021/12/19 08:45:47;;;;;;;185.75;87.18;;;12.70;87.10;;;;;;5098103;28;20032;-51
2021/12/19 08:48:14;;;;;;;180.60;90.70;;;12.90;91.60;;;;;;5079594;28;20028;-51
2021/12/19 08:50:40;;;;;;;182.60;90.13;;;13.60;90.00;;;;;;5097953;28;20028;-51
2021/12/19 08:53:06;;;;;;;176.82;84.25;;;14.00;83.60;;;;;;5097505;28;20040;-51
2021/12/19 08:55:33;;;;;;;174.90;86.07;;;13.90;75.70;;;;;;5097777;28;20024;-51
2021/12/19 08:57:59;;;;;;;175.05;87.38;;;13.40;75.80;;;;;;5097736;28;20035;-51
2021/12/19 09:00:25;;;;;;;229.02;119.00;;;13.30;79.80;;;;;;5097623;28;20393;-51
2021/12/19 09:02:53;;;;;;;240.15;121.80;;;12.20;78.00;;;;;;5097546;28;20469;-51
2021/12/19 09:05:21;;;;;;;231.13;114.32;;;11.10;93.00;;;;;;5097686;28;20050;-51
2021/12/19 09:07:47;;;;;;;220.85;110.97;;;11.00;93.60;;;;;;5097333;28;20034;-51
2021/12/19 09:10:13;;;;;;;207.70;106.53;;;10.80;96.20;;;;;;5097319;28;20043;-51
2021/12/19 09:12:39;;;;;;;211.35;104.18;;;10.40;94.90;;;;;;5096907;28;20020;-51
2021/12/19 09:15:06;;;;;;;236.50;117.63;;;10.10;96.20;;;;;;5097173;28;20076;-51
2021/12/19 09:17:32;;;;;;;189.57;101.15;;;10.70;97.30;;;;;;5104379;28;20016;-51
2021/12/19 09:19:57;;;;;;;154.25;82.63;;;10.90;95.60;;;;;;5117793;28;20027;-51
2021/12/19 09:22:24;;;;;;;122.55;71.72;;;11.10;95.10;;;;;;5117511;28;20023;-51
2021/12/19 09:24:50;;;;;;;146.32;81.13;;;11.00;95.30;;;;;;5117576;28;20500;-51
2021/12/19 09:27:16;;;;;;;164.57;83.90;;;11.30;97.80;;;;;;5117499;28;20061;-51
2021/12/19 09:29:42;;;;;;;139.95;76.05;;;11.60;97.10;;;;;;5117327;28;20112;-51
2021/12/19 09:32:08;;;;;;;136.75;78.03;;;11.30;95.70;;;;;;5117306;28;20039;-51
2021/12/19 09:34:35;;;;;;;135.32;70.43;;;12.20;95.20;;;;;;5117444;28;20024;-51
2021/12/19 09:37:02;;;;;;;131.25;70.30;;;13.20;90.50;;;;;;5117388;28;20030;-51
2021/12/19 09:39:28;;;;;;;132.48;71.82;;;14.40;76.00;;;;;;5117290;28;20084;-51
2021/12/19 09:41:57;;;;;;;133.65;69.32;;;14.50;78.80;;;;;;5117081;28;20496;-51
2021/12/19 09:44:23;;;;;;;133.55;74.95;;;13.90;71.20;;;;;;5117072;28;20023;-51
2021/12/19 09:46:50;;;;;;;125.85;72.38;;;14.60;70.30;;;;;;5117091;28;20038;-51
2021/12/19 09:49:18;;;;;;;129.38;67.43;;;14.70;68.10;;;;;;5117050;28;20465;-52
2021/12/19 09:51:45;;;;;;;95.78;54.00;;;15.20;67.10;;;;;;5117368;28;20031;-51
2021/12/19 09:54:12;;;;;;;100.78;55.55;;;15.60;58.40;;;;;;5116768;28;20405;-51
2021/12/19 09:56:39;;;;;;;116.32;63.50;;;15.60;59.50;;;;;;5116999;28;20092;-51
2021/12/19 09:59:15;;;;;;;110.47;57.67;;;15.20;57.70;;;;;;5116869;28;20034;-52
2021/12/19 10:01:41;;;;;;;112.38;58.47;;;15.90;58.50;;;;;;5116798;28;20028;-52
2021/12/19 10:04:30;;;;;;;98.47;55.00;;;15.80;56.40;;;;;;5116793;28;20061;-52
2021/12/19 10:07:18;;;;;;;86.05;46.28;;;16.20;54.40;;;;;;5116735;28;20059;-52
2021/12/19 10:10:01;;;;;;;95.35;52.17;;;16.60;53.70;;;;;;5116746;28;20031;-52
2021/12/19 10:12:48;;;;;;;101.82;56.03;;;16.50;52.70;;;;;;5107072;28;20070;-52
2021/12/19 10:15:17;;;;;;;114.47;62.28;;;16.80;53.70;;;;;;5096138;28;20024;-52
2021/12/19 10:17:43;;;;;;;108.80;63.85;;;17.00;51.90;;;;;;5105705;28;20057;-52
2021/12/19 10:20:12;;;;;;;117.88;64.22;;;16.60;52.60;;;;;;5116467;28;20169;-52
2021/12/19 10:22:39;;;;;;;127.80;71.90;;;16.80;53.60;;;;;;5116187;28;20027;-52
2021/12/19 10:25:17;;;;;;;121.78;71.25;;;17.40;51.20;;;;;;5116525;28;20020;-52
2021/12/19 10:27:50;;;;;;;126.65;70.43;;;16.90;52.10;;;;;;5116443;28;20035;-52
2021/12/19 10:30:21;;;;;;;129.85;74.20;;;17.10;51.30;;;;;;5116155;28;20476;-52
2021/12/19 10:32:58;;;;;;;137.93;79.70;;;17.00;52.40;;;;;;5116319;28;20020;-52
2021/12/19 10:35:27;;;;;;;132.43;77.40;;;17.20;50.70;;;;;;5116086;28;20362;-52
2021/12/19 10:37:54;;;;;;;147.52;79.30;;;16.70;51.30;;;;;;5116070;28;20024;-52
2021/12/19 10:40:21;;;;;;;148.90;85.38;;;15.90;51.90;;;;;;5116220;28;20488;-52
2021/12/19 10:42:54;;;;;;;167.10;96.63;;;16.60;52.20;;;;;;5115893;28;20047;-52
2021/12/19 10:45:29;;;;;;;174.75;103.70;;;17.00;51.40;;;;;;5116070;28;20024;-52
2021/12/19 10:48:28;;;;;;;180.90;99.35;;;16.40;53.00;;;;;;5115825;28;20123;-52
2021/12/19 10:51:07;;;;;;;164.95;94.35;;;16.60;53.30;;;;;;5060052;28;20036;-52
2021/12/19 10:53:35;;;;;;;152.27;85.00;;;17.10;52.00;;;;;;5115798;28;20142;-52
2021/12/19 10:56:07;;;;;;;146.85;85.20;;;17.30;50.80;;;;;;5115804;28;20016;-52
2021/12/19 10:58:38;;;;;;;136.50;76.32;;;16.70;51.30;;;;;;5115666;28;20047;-52
2021/12/19 11:01:14;;;;;;;117.72;67.63;;;17.10;51.60;;;;;;5115820;28;20055;-52
2021/12/19 11:03:43;;;;;;;107.40;61.25;;;17.40;50.80;;;;;;5115607;28;20024;-50
2021/12/19 11:06:24;;;;;;;121.40;67.90;;;17.50;50.00;;;;;;5115600;28;20027;-50
2021/12/19 11:08:51;;;;;;;120.57;70.68;;;17.50;49.30;;;;;;5115449;28;20062;-50
2021/12/19 11:11:30;;;;;;;133.30;76.13;;;18.60;48.70;;;;;;5115598;28;20022;-50
2021/12/19 11:13:56;;;;;;;129.95;72.60;;;18.30;47.70;;;;;;5074650;28;20063;-50
2021/12/19 11:16:23;;;;;;;118.38;67.60;;;19.30;46.00;;;;;;5074841;28;20032;-50
2021/12/19 11:18:50;;;;;;;111.97;66.88;;;19.10;45.30;;;;;;5112057;28;20388;-50
2021/12/19 11:21:17;;;;;;;135.50;76.15;;;19.00;45.10;;;;;;5115369;28;20027;-50
2021/12/19 11:23:43;;;;;;;126.97;71.20;;;19.10;46.90;;;;;;5115463;28;20056;-50
2021/12/19 11:26:10;;;;;;;111.32;65.43;;;18.80;46.10;;;;;;5115118;28;20073;-50
2021/12/19 11:28:37;;;;;;;106.05;60.97;;;19.10;45.80;;;;;;5115162;28;20503;-50
2021/12/19 11:31:05;;;;;;;110.25;58.35;;;18.30;44.80;;;;;;5115328;28;20020;-50
2021/12/19 11:33:45;;;;;;;88.63;51.67;;;18.20;45.20;;;;;;5115189;28;20031;-50
2021/12/19 11:36:11;;;;;;;102.25;58.38;;;17.80;45.60;;;;;;5115200;28;20026;-52
2021/12/19 11:38:38;;;;;;;111.35;62.92;;;18.70;46.60;;;;;;5114963;28;20067;-52
2021/12/19 11:41:10;;;;;;;109.50;64.65;;;18.80;45.40;;;;;;5114454;28;20538;-53
2021/12/19 11:43:42;;;;;;;108.63;62.80;;;19.40;44.20;;;;;;5114961;28;20385;-52
2021/12/19 11:46:27;;;;;;;110.70;61.67;;;18.80;44.10;;;;;;5114837;28;20118;-52
2021/12/19 11:49:18;;;;;;;107.45;58.67;;;18.50;45.00;;;;;;5114968;28;20027;-53
2021/12/19 11:51:44;;;;;;;116.40;65.50;;;17.60;45.30;;;;;;5115127;28;20035;-52
2021/12/19 11:54:16;;;;;;;107.05;58.30;;;17.20;47.10;;;;;;5114579;28;20075;-52
2021/12/19 11:57:08;;;;;;;103.38;58.97;;;17.40;47.60;;;;;;5114832;28;20051;-52
2021/12/19 11:59:36;;;;;;;103.22;57.67;;;17.40;47.60;;;;;;5115047;28;20055;-52
2021/12/19 12:02:27;;;;;;;107.68;61.83;;;17.70;47.70;;;;;;5114959;28;20483;-52
2021/12/19 12:05:28;;;;;;;100.10;56.42;;;17.90;47.20;;;;;;5114851;28;20039;-52
2021/12/19 12:08:10;;;;;;;110.10;64.00;;;18.00;46.60;;;;;;5011809;28;20605;-52
2021/12/19 12:10:51;;;;;;;107.22;60.95;;;17.80;46.40;;;;;;5012058;28;20046;-52
2021/12/19 12:13:40;;;;;;;112.85;65.80;;;18.20;45.70;;;;;;5011655;28;20029;-52
2021/12/19 12:16:13;;;;;;;123.47;67.32;;;18.40;46.60;;;;;;5011871;28;20519;-52
2021/12/19 12:18:41;;;;;;;111.38;61.90;;;18.20;45.50;;;;;;5011795;28;20033;-52
2021/12/19 12:24:07;;;;;;;111.13;62.20;;;17.40;46.80;;;;;;5011838;28;20046;-52
2021/12/19 12:26:41;;;;;;;108.60;60.83;;;18.20;46.40;;;;;;5011969;28;20495;-52
2021/12/19 12:29:08;;;;;;;94.78;55.58;;;18.50;46.20;;;;;;5011596;28;20041;-52
2021/12/19 12:31:35;;;;;;;107.68;61.00;;;18.80;45.10;;;;;;5011960;28;20029;-52
2021/12/19 12:34:03;;;;;;;109.55;61.70;;;18.80;45.30;;;;;;5011814;28;20186;-53
2021/12/19 12:36:29;;;;;;;103.07;58.92;;;18.60;44.60;;;;;;5011722;28;20110;-52
2021/12/19 12:38:55;;;;;;;103.43;61.30;;;18.10;45.00;;;;;;5011748;28;20151;-52
2021/12/19 12:41:29;;;;;;;108.85;59.90;;;17.90;46.20;;;;;;5039765;28;20480;-52
2021/12/19 12:44:02;;;;;;;100.15;58.92;;;17.90;46.20;;;;;;5114108;28;20052;-52
2021/12/19 12:46:28;;;;;;;96.55;56.42;;;17.90;45.80;;;;;;5114388;28;20054;-52
2021/12/19 12:49:00;;;;;;;95.95;55.67;;;17.00;46.50;;;;;;5114336;28;20031;-52
2021/12/19 12:51:32;;;;;;;95.00;53.42;;;17.50;46.90;;;;;;5114740;28;20051;-52
2021/12/19 12:54:04;;;;;;;78.88;48.28;;;17.90;45.70;;;;;;5116577;28;20043;-52
2021/12/19 12:56:39;;;;;;;78.90;47.05;;;17.90;45.70;;;;;;5118193;28;20100;-52
2021/12/19 12:59:06;;;;;;;90.80;49.17;;;18.30;46.90;;;;;;5117938;28;20393;-52
2021/12/19 13:01:39;;;;;;;82.00;47.05;;;18.50;46.00;;;;;;5118540;28;20027;-52
2021/12/19 13:04:13;;;;;;;83.03;50.17;;;18.30;45.50;;;;;;5117991;28;20028;-52
2021/12/19 13:06:53;;;;;;;88.50;51.17;;;18.20;45.70;;;;;;5117899;28;20038;-52
2021/12/19 13:09:19;;;;;;;86.53;48.15;;;18.00;45.50;;;;;;5117719;28;20031;-52
2021/12/19 13:11:48;;;;;;;86.40;47.80;;;18.00;45.80;;;;;;5114187;28;20497;-52
2021/12/19 13:14:37;;;;;;;76.13;44.10;;;18.10;45.30;;;;;;5097508;28;20103;-52
2021/12/19 13:17:14;;;;;;;74.53;44.28;;;17.80;45.00;;;;;;5088696;28;20044;-52
2021/12/19 13:19:49;;;;;;;77.20;47.30;;;17.90;46.40;;;;;;5097031;28;20035;-52
2021/12/19 13:22:31;;;;;;;78.43;45.55;;;17.50;45.60;;;;;;5097289;28;20027;-52
2021/12/19 13:25:01;;;;;;;71.63;41.17;;;17.40;46.80;;;;;;5097198;28;20485;-52
2021/12/19 13:27:34;;;;;;;69.50;41.50;;;17.80;46.60;;;;;;5096999;28;20039;-52
2021/12/19 13:30:08;;;;;;;75.43;42.58;;;17.90;46.30;;;;;;5097172;28;20378;-52